createdAt,value
2022-12-29T00:01:01.276Z,100058.66
2022-12-29T00:03:30.311Z,100053.53
2022-12-29T00:05:58.546Z,100057.09
2022-12-29T00:08:40.391Z,100055.22
2022-12-29T00:11:15.994Z,100046.34
2022-12-29T00:14:01.195Z,100052.66
2022-12-29T00:16:28.906Z,100042.75
2022-12-29T00:18:58.308Z,100036.97
2022-12-29T00:21:44.648Z,100032.03
2022-12-29T00:24:26.980Z,100031.34
2022-12-29T00:27:17.697Z,100019.56
2022-12-29T00:30:03.159Z,100024.16
2022-12-29T00:32:50.798Z,100021.09
2022-12-29T00:35:32.924Z,99995.88
2022-12-29T00:38:23.176Z,100008.63
2022-12-29T00:41:10.509Z,99988.19
2022-12-29T00:43:58.197Z,99993.16
2022-12-29T00:46:27.035Z,99982.25
2022-12-29T00:49:12.208Z,99970.63
2022-12-29T00:51:38.773Z,99980.56
2022-12-29T00:54:05.383Z,99995.03
2022-12-29T00:56:31.951Z,99984.31
2022-12-29T00:59:06.985Z,99978.50
2022-12-29T01:01:34.580Z,99989.06
2022-12-29T01:04:04.082Z,99973.72
2022-12-29T01:06:31.267Z,99966.56
2022-12-29T01:09:16.470Z,99965.53
2022-12-29T01:11:43.051Z,99954.94
2022-12-29T01:14:09.722Z,99944.94
2022-12-29T01:16:37.483Z,99946.78
2022-12-29T01:19:06.933Z,99955.16
2022-12-29T01:21:34.313Z,99953.44
2022-12-29T01:24:03.546Z,99958.72
2022-12-29T01:26:32.439Z,99950.56
2022-12-29T01:29:00.293Z,99956.31
2022-12-29T01:31:26.883Z,99944.75
2022-12-29T01:33:53.530Z,99937.06
2022-12-29T01:36:20.364Z,99945.44
2022-12-29T01:38:49.267Z,99947.13
2022-12-29T01:41:17.334Z,99934.84
2022-12-29T01:43:48.813Z,99931.25
2022-12-29T01:46:15.655Z,99941.81
2022-12-29T01:48:44.061Z,99933.97
2022-12-29T01:51:10.916Z,99935.13
2022-12-29T01:53:38.165Z,99933.63
2022-12-29T01:56:10.130Z,99944.50
2022-12-29T01:58:40.936Z,99948.56
2022-12-29T02:01:10.344Z,99938.34
2022-12-29T02:03:42.088Z,99924.72
2022-12-29T02:06:23.942Z,99940.56
2022-12-29T02:08:53.484Z,99939.50
2022-12-29T02:11:20.952Z,99923.00
2022-12-29T02:13:47.633Z,99948.88
2022-12-29T02:16:14.193Z,99940.16
2022-12-29T02:19:01.541Z,99932.66
2022-12-29T02:21:43.372Z,99942.16
2022-12-29T02:24:40.923Z,99951.06
2022-12-29T02:27:29.429Z,99940.78
2022-12-29T02:30:08.830Z,99946.75
2022-12-29T02:32:59.653Z,99944.19
2022-12-29T02:36:03.445Z,99938.38
2022-12-29T02:38:54.506Z,99934.81
2022-12-29T02:41:29.834Z,99924.91
2022-12-29T02:44:04.953Z,99933.56
2022-12-29T02:47:17.481Z,99941.78
2022-12-29T02:50:09.987Z,99944.69
2022-12-29T02:52:45.938Z,99943.47
2022-12-29T02:55:12.828Z,99920.63
2022-12-29T02:57:41.518Z,99929.34
2022-12-29T03:00:28.460Z,99928.13
2022-12-29T03:03:05.208Z,99937.84
2022-12-29T03:05:59.338Z,99935.13
2022-12-29T03:08:41.640Z,99927.75
2022-12-29T03:11:31.635Z,99924.53
2022-12-29T03:14:20.878Z,99927.13
2022-12-29T03:17:15.548Z,99925.91
2022-12-29T03:19:52.517Z,99945.56
2022-12-29T03:22:32.375Z,99921.84
2022-12-29T03:25:13.876Z,99924.72
2022-12-29T03:27:48.474Z,99923.19
2022-12-29T03:30:15.890Z,99930.00
2022-12-29T03:32:56.625Z,99929.88
2022-12-29T03:35:27.078Z,99921.38
2022-12-29T03:38:07.431Z,99936.53
2022-12-29T03:40:35.505Z,99928.69
2022-12-29T03:43:04.150Z,99917.28
2022-12-29T03:45:30.648Z,99921.91
2022-12-29T03:47:59.596Z,99924.13
2022-12-29T03:50:26.132Z,99924.63
2022-12-29T03:52:52.683Z,99913.22
2022-12-29T03:55:19.284Z,99923.78
2022-12-29T03:57:45.948Z,99911.69
2022-12-29T04:00:13.201Z,99925.16
2022-12-29T04:02:42.695Z,99948.38
2022-12-29T04:05:09.605Z,99929.03
2022-12-29T04:07:36.233Z,99932.47
2022-12-29T04:10:03.164Z,99938.09
2022-12-29T04:12:29.727Z,99932.16
2022-12-29T04:14:56.315Z,99928.69
2022-12-29T04:17:22.881Z,99940.31
2022-12-29T04:19:49.611Z,99943.56
2022-12-29T04:22:16.255Z,99932.66
2022-12-29T04:24:44.931Z,99928.19
2022-12-29T04:27:11.536Z,99941.31
2022-12-29T04:29:40.412Z,99918.84
2022-12-29T04:32:06.945Z,99941.50
2022-12-29T04:34:34.116Z,99938.97
2022-12-29T04:37:00.676Z,99933.00
2022-12-29T04:39:27.275Z,99944.94
2022-12-29T04:41:53.845Z,99927.88
2022-12-29T04:44:22.647Z,99931.63
2022-12-29T04:46:49.296Z,99926.69
2022-12-29T04:49:15.954Z,99953.13
2022-12-29T04:51:42.559Z,99948.72
2022-12-29T04:54:11.319Z,99962.91
2022-12-29T04:56:37.925Z,99985.41
2022-12-29T04:59:04.567Z,99978.56
2022-12-29T05:01:33.711Z,99966.53
2022-12-29T05:04:00.787Z,99983.75
2022-12-29T05:06:27.339Z,99975.09
2022-12-29T05:08:56.405Z,99985.31
2022-12-29T05:11:23.010Z,99993.50
2022-12-29T05:13:49.575Z,100007.16
2022-12-29T05:16:16.111Z,99994.03
2022-12-29T05:18:42.719Z,100004.94
2022-12-29T05:21:09.348Z,100021.69
2022-12-29T05:23:35.917Z,100006.31
2022-12-29T05:26:02.489Z,100017.56
2022-12-29T05:28:31.501Z,100010.59
2022-12-29T05:30:58.082Z,100005.31
2022-12-29T05:33:27.050Z,100027.13
2022-12-29T05:35:55.851Z,100024.41
2022-12-29T05:38:22.532Z,100009.56
2022-12-29T05:40:49.115Z,100025.41
2022-12-29T05:43:15.710Z,100016.91
2022-12-29T05:45:42.329Z,100026.97
2022-12-29T05:48:11.087Z,100036.00
2022-12-29T05:50:37.915Z,100036.16
2022-12-29T05:53:04.492Z,100035.81
2022-12-29T05:55:31.027Z,100040.78
2022-12-29T05:57:57.662Z,100029.00
2022-12-29T06:00:24.496Z,100040.44
2022-12-29T06:02:51.508Z,100043.69
2022-12-29T06:05:18.469Z,100025.75
2022-12-29T06:07:47.466Z,100033.44
2022-12-29T06:10:16.484Z,100016.22
2022-12-29T06:12:43.245Z,100040.59
2022-12-29T06:15:12.381Z,100025.25
2022-12-29T06:17:39.002Z,100018.09
2022-12-29T06:20:08.350Z,100018.44
2022-12-29T06:22:35.266Z,100019.13
2022-12-29T06:25:05.428Z,100039.56
2022-12-29T06:27:34.641Z,100020.47
2022-12-29T06:30:01.271Z,100016.91
2022-12-29T06:32:28.025Z,100023.38
2022-12-29T06:34:56.646Z,100025.09
2022-12-29T06:37:23.177Z,100022.03
2022-12-29T06:39:52.136Z,100011.19
2022-12-29T06:42:20.898Z,100033.03
2022-12-29T06:44:47.515Z,100047.91
2022-12-29T06:47:16.422Z,100051.81
2022-12-29T06:49:43.073Z,100018.75
2022-12-29T06:52:12.914Z,100041.97
2022-12-29T06:54:42.408Z,100042.28
2022-12-29T06:57:13.798Z,100048.09
2022-12-29T06:59:45.279Z,100043.50
2022-12-29T07:02:12.692Z,100044.34
2022-12-29T07:04:39.365Z,100044.84
2022-12-29T07:07:06.025Z,100039.22
2022-12-29T07:09:32.772Z,100063.44
2022-12-29T07:11:59.566Z,100053.38
2022-12-29T07:14:26.127Z,100068.72
2022-12-29T07:16:54.920Z,100066.84
2022-12-29T07:19:21.560Z,100067.72
2022-12-29T07:21:48.477Z,100069.25
2022-12-29T07:24:15.070Z,100068.22
2022-12-29T07:26:42.810Z,100063.78
2022-12-29T07:29:09.374Z,100084.25
2022-12-29T07:31:35.951Z,100071.63
2022-12-29T07:34:02.598Z,100086.66
2022-12-29T07:36:34.645Z,100099.94
2022-12-29T07:39:02.001Z,100099.25
2022-12-29T07:41:28.576Z,100093.78
2022-12-29T07:43:55.350Z,100068.72
2022-12-29T07:46:56.635Z,100084.38
2022-12-29T07:49:10.855Z,100092.75
2022-12-29T07:51:39.954Z,100092.59
2022-12-29T07:54:06.496Z,100108.44
2022-12-29T07:56:33.078Z,100107.41
2022-12-29T07:58:59.621Z,100112.53
2022-12-29T08:01:26.291Z,100109.31
2022-12-29T08:03:57.252Z,100114.94
2022-12-29T08:06:24.421Z,100114.94
2022-12-29T08:08:53.427Z,100114.91
2022-12-29T08:11:20.375Z,100130.56
2022-12-29T08:13:47.020Z,100128.53
2022-12-29T08:16:15.878Z,100115.56
2022-12-29T08:18:42.641Z,100126.66
2022-12-29T08:21:09.397Z,100128.72
2022-12-29T08:23:35.959Z,100113.34
2022-12-29T08:26:08.385Z,100109.63
2022-12-29T08:28:34.988Z,100118.47
2022-12-29T08:31:02.992Z,100122.78
2022-12-29T08:33:30.350Z,100130.25
2022-12-29T08:36:06.489Z,100134.72
2022-12-29T08:38:33.591Z,100114.25
2022-12-29T08:41:02.047Z,100116.13
2022-12-29T08:43:29.458Z,100112.56
2022-12-29T08:45:57.157Z,100114.28
2022-12-29T08:48:32.230Z,100104.72
2022-12-29T08:51:01.674Z,100116.50
2022-12-29T08:53:28.399Z,100115.28
2022-12-29T08:56:05.137Z,100113.41
2022-12-29T08:58:33.167Z,100116.84
2022-12-29T09:01:00.374Z,100123.81
2022-12-29T09:04:03.808Z,100111.53
2022-12-29T09:06:15.098Z,100123.97
2022-12-29T09:08:44.804Z,100121.78
2022-12-29T09:11:23.257Z,100129.44
2022-12-29T09:13:50.184Z,100129.09
2022-12-29T09:16:17.591Z,100125.53
2022-12-29T09:18:46.842Z,100137.13
2022-12-29T09:21:14.303Z,100131.00
2022-12-29T09:23:41.579Z,100144.97
2022-12-29T09:26:09.408Z,100140.03
2022-12-29T09:28:36.321Z,100129.59
2022-12-29T09:31:05.350Z,100161.19
2022-12-29T09:33:34.392Z,100139.00
2022-12-29T09:36:01.137Z,100169.72
2022-12-29T09:38:29.179Z,100161.84
2022-12-29T09:41:02.122Z,100174.50
2022-12-29T09:43:47.201Z,100181.84
2022-12-29T09:46:24.781Z,100185.22
2022-12-29T09:49:08.922Z,100191.69
2022-12-29T09:51:42.316Z,100195.63
2022-12-29T09:54:55.164Z,100215.75
2022-12-29T09:57:35.970Z,100220.69
2022-12-29T10:00:13.222Z,100220.09
2022-12-29T10:02:47.557Z,100245.00
2022-12-29T10:05:25.563Z,100237.63
2022-12-29T10:07:55.044Z,100267.47
2022-12-29T10:10:31.130Z,100261.63
2022-12-29T10:13:14.363Z,100241.81
2022-12-29T10:16:21.116Z,100273.56
2022-12-29T10:19:18.745Z,100275.09
2022-12-29T10:21:54.315Z,100268.47
2022-12-29T10:24:22.980Z,100268.78
2022-12-29T10:26:52.776Z,100280.53
2022-12-29T10:29:27.678Z,100276.78
2022-12-29T10:32:27.840Z,100282.56
2022-12-29T10:34:59.884Z,100284.63
2022-12-29T10:38:02.339Z,100286.38
2022-12-29T10:41:16.240Z,100294.41
2022-12-29T10:43:47.775Z,100311.28
2022-12-29T10:46:19.321Z,100304.75
2022-12-29T10:48:47.667Z,100312.94
2022-12-29T10:51:37.962Z,100320.28
2022-12-29T10:54:11.827Z,100312.78
2022-12-29T10:56:45.438Z,100325.13
2022-12-29T10:59:17.452Z,100321.44
2022-12-29T11:02:10.054Z,100331.31
2022-12-29T11:04:49.182Z,100315.09
2022-12-29T11:07:20.987Z,100330.63
2022-12-29T11:09:55.104Z,100330.63
2022-12-29T11:12:32.035Z,100332.19
2022-12-29T11:15:08.554Z,100332.88
2022-12-29T11:17:55.074Z,100334.19
2022-12-29T11:20:39.544Z,100338.97
2022-12-29T11:23:34.600Z,100324.28
2022-12-29T11:26:11.912Z,100332.28
2022-12-29T11:28:43.462Z,100344.06
2022-12-29T11:31:11.025Z,100349.69
2022-12-29T11:33:39.504Z,100347.28
2022-12-29T11:36:14.775Z,100356.63
2022-12-29T11:38:44.030Z,100360.38
2022-12-29T11:41:20.864Z,100359.75
2022-12-29T11:43:48.593Z,100359.56
2022-12-29T11:46:22.673Z,100375.75
2022-12-29T11:48:53.406Z,100382.63
2022-12-29T11:51:44.510Z,100388.16
2022-12-29T11:54:20.224Z,100375.03
2022-12-29T11:56:47.367Z,100387.19
2022-12-29T11:59:39.174Z,100387.19
2022-12-29T12:02:21.232Z,100402.00
2022-12-29T12:04:52.087Z,100400.44
2022-12-29T12:07:30.694Z,100389.00
2022-12-29T12:10:07.912Z,100379.88
2022-12-29T12:13:15.290Z,100412.88
2022-12-29T12:15:51.251Z,100393.28
2022-12-29T12:18:39.180Z,100410.06
2022-12-29T12:21:14.018Z,100401.56
2022-12-29T12:24:04.982Z,100398.84
2022-12-29T12:26:47.444Z,100391.13
2022-12-29T12:29:27.472Z,100410.94
2022-12-29T12:32:19.805Z,100402.06
2022-12-29T12:34:47.836Z,100400.25
2022-12-29T12:37:29.553Z,100408.47
2022-12-29T12:39:56.107Z,100405.41
2022-12-29T12:42:28.600Z,100411.72
2022-12-29T12:45:25.954Z,100405.75
2022-12-29T12:48:23.882Z,100421.78
2022-12-29T12:51:36.142Z,100411.84
2022-12-29T12:54:31.661Z,100431.31
2022-12-29T12:57:12.781Z,100410.97
2022-12-29T12:59:48.279Z,100429.97
2022-12-29T13:02:57.007Z,100428.75
2022-12-29T13:05:32.428Z,100434.75
2022-12-29T13:08:17.573Z,100421.06
2022-12-29T13:10:56.233Z,100420.22
2022-12-29T13:13:56.660Z,100427.59
2022-12-29T13:16:55.255Z,100436.78
2022-12-29T13:19:27.529Z,100436.09
2022-12-29T13:22:09.055Z,100438.47
2022-12-29T13:24:58.807Z,100454.50
2022-12-29T13:27:25.364Z,100459.56
2022-12-29T13:30:03.910Z,100468.44
2022-12-29T13:32:42.816Z,100457.78
2022-12-29T13:35:18.384Z,100469.34
2022-12-29T13:38:01.984Z,100469.44
2022-12-29T13:40:35.564Z,100470.25
2022-12-29T13:43:04.836Z,100470.56
2022-12-29T13:45:34.279Z,100468.31
2022-12-29T13:48:06.893Z,100457.50
2022-12-29T13:50:39.572Z,100471.44
2022-12-29T13:53:25.578Z,100470.91
2022-12-29T13:56:11.183Z,100466.81
2022-12-29T13:58:43.070Z,100470.75
2022-12-29T14:01:16.205Z,100470.75
2022-12-29T14:03:54.024Z,100473.31
2022-12-29T14:06:23.886Z,100462.88
2022-12-29T14:08:53.238Z,100457.97
2022-12-29T14:11:31.041Z,100468.03
2022-12-29T14:14:00.677Z,100478.47
2022-12-29T14:16:34.096Z,100468.19
2022-12-29T14:19:25.571Z,100477.63
2022-12-29T14:22:13.656Z,100482.34
2022-12-29T14:24:46.694Z,100482.50
2022-12-29T14:27:13.207Z,100476.19
2022-12-29T14:29:39.637Z,100478.94
2022-12-29T14:32:21.560Z,100476.34
2022-12-29T14:34:52.461Z,100471.06
2022-12-29T14:37:31.128Z,100479.72
2022-12-29T14:40:15.852Z,100482.59
2022-12-29T14:42:43.376Z,100477.03
2022-12-29T14:45:11.194Z,100483.06
2022-12-29T14:47:39.887Z,100491.72
2022-12-29T14:50:14.552Z,100498.00
2022-12-29T14:52:54.148Z,100502.91
2022-12-29T14:55:43.426Z,100500.50
2022-12-29T14:58:21.859Z,100494.81
2022-12-29T15:00:49.595Z,100512.56
2022-12-29T15:03:24.759Z,100509.44
2022-12-29T15:06:10.076Z,100517.47
2022-12-29T15:08:41.525Z,100501.72
2022-12-29T15:11:21.433Z,100496.28
2022-12-29T15:13:49.777Z,100502.63
2022-12-29T15:16:32.395Z,100495.91
2022-12-29T15:18:59.999Z,100501.97
2022-12-29T15:21:31.902Z,100505.56
2022-12-29T15:23:58.936Z,100505.63
2022-12-29T15:26:39.298Z,100501.94
2022-12-29T15:29:06.246Z,100500.56
2022-12-29T15:31:32.806Z,100511.75
2022-12-29T15:34:13.287Z,100516.47
2022-12-29T15:36:41.522Z,100523.09
2022-12-29T15:39:34.766Z,100516.22
2022-12-29T15:42:11.524Z,100519.25
2022-12-29T15:44:44.504Z,100506.41
2022-12-29T15:47:19.261Z,100511.06
2022-12-29T15:49:49.813Z,100516.53
2022-12-29T15:52:21.945Z,100505.38
2022-12-29T15:54:54.479Z,100511.72
2022-12-29T15:57:27.361Z,100525.16
2022-12-29T15:59:57.733Z,100530.47
2022-12-29T16:02:27.711Z,100537.22
2022-12-29T16:05:17.323Z,100542.22
2022-12-29T16:07:56.223Z,100541.50
2022-12-29T16:10:37.286Z,100535.63
2022-12-29T16:13:23.691Z,100539.69
2022-12-29T16:15:53.333Z,100545.16
2022-12-29T16:18:35.272Z,100562.66
2022-12-29T16:21:04.445Z,100559.06
2022-12-29T16:23:33.319Z,100555.69
2022-12-29T16:26:00.697Z,100563.56
2022-12-29T16:28:44.220Z,100537.94
2022-12-29T16:31:35.084Z,100573.88
2022-12-29T16:34:24.444Z,100587.03
2022-12-29T16:36:59.518Z,100582.75
2022-12-29T16:39:32.023Z,100589.06
2022-12-29T16:41:59.046Z,100589.06
2022-12-29T16:44:28.320Z,100586.47
2022-12-29T16:47:06.134Z,100595.94
2022-12-29T16:49:37.639Z,100598.22
2022-12-29T16:52:35.234Z,100607.44
2022-12-29T16:55:02.717Z,100604.25
2022-12-29T16:57:37.546Z,100600.13
2022-12-29T17:00:08.907Z,100605.44
2022-12-29T17:02:45.659Z,100598.69
2022-12-29T17:05:17.091Z,100622.31
2022-12-29T17:07:44.140Z,100612.00
2022-12-29T17:10:11.471Z,100626.50
2022-12-29T17:12:38.140Z,100622.19
2022-12-29T17:15:09.375Z,100621.63
2022-12-29T17:17:42.295Z,100618.31
2022-12-29T17:20:16.656Z,100622.06
2022-12-29T17:22:43.531Z,100617.91
2022-12-29T17:25:18.706Z,100638.94
2022-12-29T17:27:58.977Z,100644.81
2022-12-29T17:30:33.156Z,100647.09
2022-12-29T17:33:08.832Z,100641.53
2022-12-29T17:35:35.676Z,100650.94
2022-12-29T17:38:02.296Z,100653.50
2022-12-29T17:40:32.194Z,100658.63
2022-12-29T17:43:00.359Z,100664.19
2022-12-29T17:45:32.175Z,100659.03
2022-12-29T17:48:01.958Z,100668.22
2022-12-29T17:50:32.866Z,100676.50
2022-12-29T17:53:08.758Z,100675.94
2022-12-29T17:55:38.429Z,100688.06
2022-12-29T17:58:32.762Z,100688.59
2022-12-29T18:01:03.457Z,100686.16
2022-12-29T18:03:32.399Z,100694.59
2022-12-29T18:06:01.854Z,100688.00
2022-12-29T18:08:31.213Z,100684.97
2022-12-29T18:10:57.969Z,100672.34
2022-12-29T18:13:33.715Z,100700.13
2022-12-29T18:16:10.871Z,100691.78
2022-12-29T18:18:39.533Z,100704.00
2022-12-29T18:21:14.246Z,100706.84
2022-12-29T18:23:40.770Z,100709.81
2022-12-29T18:26:25.467Z,100724.66
2022-12-29T18:28:53.909Z,100722.66
2022-12-29T18:31:32.179Z,100696.81
2022-12-29T18:34:01.372Z,100704.69
2022-12-29T18:36:30.447Z,100724.47
2022-12-29T18:38:57.033Z,100729.91
2022-12-29T18:41:30.270Z,100720.19
2022-12-29T18:43:57.768Z,100721.19
2022-12-29T18:46:26.849Z,100722.78
2022-12-29T18:48:53.905Z,100716.91
2022-12-29T18:51:24.878Z,100731.31
2022-12-29T18:53:55.370Z,100722.72
2022-12-29T18:56:24.298Z,100729.00
2022-12-29T18:58:51.648Z,100721.00
2022-12-29T19:01:27.803Z,100734.88
2022-12-29T19:03:54.792Z,100728.03
2022-12-29T19:06:23.950Z,100738.44
2022-12-29T19:08:50.557Z,100725.16
2022-12-29T19:11:19.573Z,100727.28
2022-12-29T19:13:46.224Z,100742.31
2022-12-29T19:16:19.515Z,100718.22
2022-12-29T19:18:53.330Z,100753.19
2022-12-29T19:21:27.717Z,100742.97
2022-12-29T19:23:54.267Z,100754.03
2022-12-29T19:26:34.422Z,100747.56
2022-12-29T19:29:01.728Z,100762.19
2022-12-29T19:31:28.654Z,100750.00
2022-12-29T19:33:55.275Z,100760.75
2022-12-29T19:36:22.233Z,100749.75
2022-12-29T19:38:51.360Z,100751.38
2022-12-29T19:41:18.011Z,100751.53
2022-12-29T19:43:47.054Z,100762.38
2022-12-29T19:46:18.062Z,100769.41
2022-12-29T19:48:49.493Z,100766.81
2022-12-29T19:51:17.270Z,100774.97
2022-12-29T19:53:45.557Z,100776.09
2022-12-29T19:56:14.916Z,100766.03
2022-12-29T19:58:47.516Z,100763.72
2022-12-29T20:01:24.003Z,100785.88
2022-12-29T20:03:50.759Z,100781.44
2022-12-29T20:06:17.585Z,100779.25
2022-12-29T20:08:44.576Z,100775.09
2022-12-29T20:11:16.817Z,100781.97
2022-12-29T20:13:46.308Z,100779.41
2022-12-29T20:16:16.191Z,100794.69
2022-12-29T20:18:43.268Z,100784.59
2022-12-29T20:21:15.648Z,100808.63
2022-12-29T20:23:43.280Z,100801.63
2022-12-29T20:26:16.915Z,100801.78
2022-12-29T20:28:43.543Z,100809.19
2022-12-29T20:31:38.266Z,100810.28
2022-12-29T20:34:07.436Z,100813.25
2022-12-29T20:36:36.520Z,100808.94
2022-12-29T20:39:06.638Z,100814.66
2022-12-29T20:41:33.717Z,100811.31
2022-12-29T20:44:00.862Z,100809.75
2022-12-29T20:46:35.036Z,100791.50
2022-12-29T20:49:08.640Z,100812.56
2022-12-29T20:52:04.560Z,100813.69
2022-12-29T20:54:31.706Z,100828.50
2022-12-29T20:57:00.782Z,100808.28
2022-12-29T20:59:28.344Z,100819.50
2022-12-29T21:01:56.248Z,100822.84
2022-12-29T21:04:23.114Z,100821.56
2022-12-29T21:06:49.665Z,100811.69
2022-12-29T21:09:16.281Z,100821.81
2022-12-29T21:11:42.872Z,100824.78
2022-12-29T21:14:09.657Z,100821.59
2022-12-29T21:16:38.578Z,100822.44
2022-12-29T21:19:05.616Z,100829.47
2022-12-29T21:21:32.258Z,100826.44
2022-12-29T21:24:05.452Z,100832.69
2022-12-29T21:26:33.681Z,100829.88
2022-12-29T21:29:01.249Z,100833.19
2022-12-29T21:31:36.448Z,100836.91
2022-12-29T21:34:06.621Z,100847.53
2022-12-29T21:36:33.548Z,100847.91
2022-12-29T21:39:00.635Z,100854.78
2022-12-29T21:41:27.211Z,100837.06
2022-12-29T21:44:12.347Z,100865.03
2022-12-29T21:46:40.939Z,100867.59
2022-12-29T21:49:08.276Z,100872.19
2022-12-29T21:51:54.211Z,100862.94
2022-12-29T21:54:47.601Z,100879.84
2022-12-29T21:57:39.991Z,100868.47
2022-12-29T22:00:27.882Z,100886.59
2022-12-29T22:03:22.007Z,100895.84
2022-12-29T22:06:08.578Z,100889.94
2022-12-29T22:08:57.224Z,100895.34
2022-12-29T22:11:42.346Z,100888.97
2022-12-29T22:14:11.878Z,100921.00
2022-12-29T22:16:38.564Z,100916.91
2022-12-29T22:19:08.727Z,100928.25
2022-12-29T22:21:35.317Z,100931.47
2022-12-29T22:24:04.281Z,100921.38
2022-12-29T22:26:30.970Z,100950.34
2022-12-29T22:29:00.075Z,100951.19
2022-12-29T22:31:30.548Z,100939.97
2022-12-29T22:33:58.773Z,100945.16
2022-12-29T22:36:26.615Z,100936.66
2022-12-29T22:38:53.217Z,100936.53
2022-12-29T22:41:23.064Z,100937.38
2022-12-29T22:43:59.478Z,100924.44
2022-12-29T22:46:30.978Z,100933.81
2022-12-29T22:48:57.830Z,100941.06
2022-12-29T22:51:24.479Z,100918.16
2022-12-29T22:53:51.419Z,100943.28
2022-12-29T22:56:18.232Z,100940.69
2022-12-29T22:58:47.130Z,100955.75
2022-12-29T23:01:16.102Z,100945.03
2022-12-29T23:03:43.114Z,100961.66
2022-12-29T23:06:14.895Z,100956.97
2022-12-29T23:08:43.679Z,100960.94
2022-12-29T23:11:12.649Z,100970.75
2022-12-29T23:13:41.091Z,100974.84
2022-12-29T23:16:08.197Z,100961.88
2022-12-29T23:18:34.856Z,100982.84
2022-12-29T23:21:01.491Z,100987.38
2022-12-29T23:23:49.615Z,100982.19
2022-12-29T23:26:18.653Z,100993.81
2022-12-29T23:28:45.450Z,100976.41
2022-12-29T23:31:12.094Z,100985.00
2022-12-29T23:33:40.955Z,101003.25
2022-12-29T23:36:08.164Z,101000.66
2022-12-29T23:38:34.725Z,100994.63
2022-12-29T23:41:01.253Z,100992.78
2022-12-29T23:43:27.846Z,100991.41
2022-12-29T23:45:54.471Z,100994.25
2022-12-29T23:48:21.155Z,100989.81
2022-12-29T23:50:47.808Z,101016.53
2022-12-29T23:53:16.706Z,101002.38
2022-12-29T23:55:43.957Z,100997.44
2022-12-29T23:58:11.002Z,101006.28
